createdAt,value
2022-07-25T00:00:11.728Z,21.61
2022-07-25T00:02:38.799Z,21.51
2022-07-25T00:05:07.037Z,22.03
2022-07-25T00:07:33.989Z,22.05
2022-07-25T00:10:01.751Z,19.39
2022-07-25T00:12:28.901Z,20.59
2022-07-25T00:14:56.614Z,21.90
2022-07-25T00:17:27.293Z,21.80
2022-07-25T00:19:56.104Z,21.86
2022-07-25T00:22:24.503Z,18.04
2022-07-25T00:24:52.944Z,21.82
2022-07-25T00:27:20.480Z,18.28
2022-07-25T00:29:48.261Z,21.79
2022-07-25T00:32:15.752Z,17.85
2022-07-25T00:34:43.922Z,20.15
2022-07-25T00:37:11.310Z,21.81
2022-07-25T00:39:39.912Z,20.02
2022-07-25T00:42:07.618Z,21.78
2022-07-25T00:44:35.576Z,21.74
2022-07-25T00:47:03.202Z,16.29
2022-07-25T00:49:30.652Z,19.75
2022-07-25T00:51:59.062Z,16.29
2022-07-25T00:54:26.734Z,16.59
2022-07-25T00:56:55.361Z,20.65
2022-07-25T00:59:23.603Z,18.42
2022-07-25T01:01:52.190Z,21.74
2022-07-25T01:04:20.306Z,19.70
2022-07-25T01:06:48.090Z,18.70
2022-07-25T01:09:19.336Z,21.66
2022-07-25T01:11:46.814Z,16.30
2022-07-25T01:14:14.413Z,19.64
2022-07-25T01:16:42.002Z,16.37
2022-07-25T01:19:10.201Z,21.61
2022-07-25T01:21:39.910Z,19.56
2022-07-25T01:24:09.253Z,15.91
2022-07-25T01:26:39.003Z,17.94
2022-07-25T01:29:07.231Z,16.99
2022-07-25T01:31:38.285Z,18.67
2022-07-25T01:34:06.962Z,19.19
2022-07-25T01:36:35.222Z,17.50
2022-07-25T01:39:07.894Z,21.28
2022-07-25T01:41:36.269Z,18.78
2022-07-25T01:44:04.585Z,21.19
2022-07-25T01:46:32.264Z,17.83
2022-07-25T01:49:00.816Z,16.51
2022-07-25T01:51:29.489Z,15.38
2022-07-25T01:53:57.325Z,18.86
2022-07-25T01:56:25.913Z,18.34
2022-07-25T01:58:53.485Z,15.36
2022-07-25T02:01:21.833Z,16.34
2022-07-25T02:03:49.654Z,15.40
2022-07-25T02:06:21.090Z,17.34
2022-07-25T02:08:49.113Z,20.95
2022-07-25T02:11:17.712Z,17.39
2022-07-25T02:13:47.633Z,17.12
2022-07-25T02:16:18.754Z,16.76
2022-07-25T02:18:46.221Z,17.30
2022-07-25T02:21:15.188Z,15.30
2022-07-25T02:23:45.181Z,20.76
2022-07-25T02:26:13.394Z,17.15
2022-07-25T02:28:44.951Z,17.95
2022-07-25T02:31:12.627Z,20.03
2022-07-25T02:33:40.016Z,18.15
2022-07-25T02:36:08.797Z,19.40
2022-07-25T02:38:36.419Z,19.49
2022-07-25T02:41:04.598Z,20.61
2022-07-25T02:43:35.382Z,15.30
2022-07-25T02:46:03.207Z,17.84
2022-07-25T02:48:30.852Z,15.31
2022-07-25T02:50:58.841Z,18.52
2022-07-25T02:53:47.207Z,14.85
2022-07-25T02:56:15.802Z,14.74
2022-07-25T02:58:44.885Z,14.81
2022-07-25T03:01:13.942Z,14.67
2022-07-25T03:03:41.843Z,16.63
2022-07-25T03:06:10.114Z,18.42
2022-07-25T03:08:38.334Z,14.54
2022-07-25T03:11:07.552Z,18.85
2022-07-25T03:13:38.310Z,18.12
2022-07-25T03:16:07.012Z,16.81
2022-07-25T03:18:35.951Z,20.37
2022-07-25T03:21:06.662Z,19.96
2022-07-25T03:23:35.604Z,14.76
2022-07-25T03:26:10.048Z,14.15
2022-07-25T03:28:38.829Z,14.87
2022-07-25T03:31:07.734Z,17.25
2022-07-25T03:33:35.705Z,15.33
2022-07-25T03:36:04.664Z,16.63
2022-07-25T03:38:33.054Z,16.57
2022-07-25T03:41:01.039Z,14.85
2022-07-25T03:43:31.437Z,13.28
2022-07-25T03:46:03.024Z,17.49
2022-07-25T03:48:37.227Z,15.17
2022-07-25T03:51:07.202Z,20.20
2022-07-25T03:53:56.088Z,16.48
2022-07-25T03:56:24.866Z,18.72
2022-07-25T03:58:52.255Z,20.29
2022-07-25T04:01:21.113Z,14.84
2022-07-25T04:03:49.869Z,19.57
2022-07-25T04:06:17.377Z,14.11
2022-07-25T04:08:45.234Z,17.16
2022-07-25T04:11:13.017Z,19.19
2022-07-25T04:13:40.535Z,20.50
2022-07-25T04:16:11.602Z,20.53
2022-07-25T04:18:43.690Z,20.59
2022-07-25T04:21:14.293Z,18.38
2022-07-25T04:23:42.496Z,20.67
2022-07-25T04:26:16.902Z,20.73
2022-07-25T04:28:45.175Z,14.97
2022-07-25T04:31:13.299Z,20.83
2022-07-25T04:33:41.930Z,16.27
2022-07-25T04:36:12.831Z,15.14
2022-07-25T04:38:43.653Z,15.28
2022-07-25T04:41:11.814Z,19.53
2022-07-25T04:43:39.204Z,20.15
2022-07-25T04:46:06.804Z,17.20
2022-07-25T04:48:34.509Z,21.75
2022-07-25T04:51:02.950Z,17.98
2022-07-25T04:53:30.993Z,22.09
2022-07-25T04:55:58.465Z,17.14
2022-07-25T04:58:25.829Z,20.27
2022-07-25T05:00:54.959Z,20.68
2022-07-25T05:03:24.331Z,22.91
2022-07-25T05:05:53.015Z,19.45
2022-07-25T05:08:20.752Z,21.54
2022-07-25T05:10:48.115Z,21.25
2022-07-25T05:13:16.527Z,23.21
2022-07-25T05:15:44.455Z,25.00
2022-07-25T05:18:12.663Z,28.56
2022-07-25T05:20:40.495Z,24.12
2022-07-25T05:23:08.798Z,28.09
2022-07-25T05:25:36.913Z,28.32
2022-07-25T05:28:05.396Z,27.01
2022-07-25T05:30:39.355Z,23.26
2022-07-25T05:33:08.107Z,26.35
2022-07-25T05:35:36.593Z,21.61
2022-07-25T05:38:05.405Z,23.85
2022-07-25T05:40:34.575Z,21.14
2022-07-25T05:43:03.897Z,27.02
2022-07-25T05:45:33.028Z,25.47
2022-07-25T05:48:29.937Z,22.23
2022-07-25T05:50:59.655Z,23.93
2022-07-25T05:53:27.324Z,24.58
2022-07-25T05:55:55.808Z,24.85
2022-07-25T05:58:29.138Z,23.85
2022-07-25T06:00:58.814Z,23.76
2022-07-25T06:03:26.938Z,27.60
2022-07-25T06:05:56.494Z,26.35
2022-07-25T06:08:24.119Z,23.94
2022-07-25T06:10:53.167Z,23.62
2022-07-25T06:13:21.844Z,23.24
2022-07-25T06:15:55.480Z,24.01
2022-07-25T06:18:23.626Z,29.63
2022-07-25T06:20:50.713Z,26.70
2022-07-25T06:23:20.641Z,29.80
2022-07-25T06:25:50.457Z,28.32
2022-07-25T06:28:18.478Z,28.17
2022-07-25T06:30:46.276Z,30.50
2022-07-25T06:33:16.013Z,33.10
2022-07-25T06:35:44.597Z,34.48
2022-07-25T06:38:12.088Z,34.68
2022-07-25T06:40:41.646Z,34.80
2022-07-25T06:43:09.216Z,35.20
2022-07-25T06:45:36.604Z,33.24
2022-07-25T06:48:04.388Z,31.96
2022-07-25T06:50:31.790Z,32.11
2022-07-25T06:52:59.217Z,29.73
2022-07-25T06:55:27.026Z,31.82
2022-07-25T06:57:54.759Z,31.91
2022-07-25T07:00:21.985Z,31.94
2022-07-25T07:02:58.441Z,28.76
2022-07-25T07:05:30.025Z,32.70
2022-07-25T07:08:00.434Z,29.99
2022-07-25T07:10:28.394Z,28.60
2022-07-25T07:13:13.615Z,30.50
2022-07-25T07:15:49.607Z,29.98
2022-07-25T07:18:19.195Z,34.15
2022-07-25T07:20:47.424Z,32.27
2022-07-25T07:23:17.845Z,33.64
2022-07-25T07:25:48.074Z,30.51
2022-07-25T07:28:16.234Z,36.53
2022-07-25T07:34:24.599Z,37.52
2022-07-25T07:36:53.292Z,38.77
2022-07-25T07:39:20.980Z,36.04
2022-07-25T07:41:47.912Z,35.21
2022-07-25T07:44:14.923Z,34.98
2022-07-25T07:46:42.147Z,35.39
2022-07-25T07:49:09.770Z,36.06
2022-07-25T07:51:37.988Z,36.27
2022-07-25T07:54:34.578Z,34.34
2022-07-25T07:57:01.715Z,35.43
2022-07-25T07:59:28.750Z,35.58
2022-07-25T08:01:57.025Z,36.52
2022-07-25T08:04:24.397Z,36.09
2022-07-25T08:06:54.054Z,36.27
2022-07-25T08:09:21.106Z,35.46
2022-07-25T08:11:49.786Z,36.11
2022-07-25T08:14:16.866Z,31.58
2022-07-25T08:16:43.831Z,35.77
2022-07-25T08:19:11.855Z,35.23
2022-07-25T08:21:39.584Z,34.80
2022-07-25T08:24:07.324Z,31.97
2022-07-25T08:26:37.273Z,31.44
2022-07-25T08:29:18.884Z,34.17
2022-07-25T08:31:47.236Z,30.52
2022-07-25T08:34:22.398Z,32.84
2022-07-25T08:36:49.816Z,33.18
2022-07-25T08:39:20.536Z,33.63
2022-07-25T08:41:47.650Z,32.42
2022-07-25T08:44:16.019Z,32.16
2022-07-25T08:46:43.636Z,32.14
2022-07-25T08:49:11.260Z,32.79
2022-07-25T08:51:40.188Z,33.12
2022-07-25T08:54:07.655Z,32.22
2022-07-25T08:56:35.764Z,33.11
2022-07-25T08:59:03.812Z,33.16
2022-07-25T09:01:34.898Z,32.54
2022-07-25T09:04:03.901Z,31.60
2022-07-25T09:06:31.354Z,32.25
2022-07-25T09:09:01.169Z,30.91
2022-07-25T09:11:32.783Z,34.02
2022-07-25T09:14:02.921Z,35.70
2022-07-25T09:16:34.849Z,32.91
2022-07-25T09:19:11.968Z,31.78
2022-07-25T09:21:40.429Z,37.97
2022-07-25T09:24:18.958Z,39.18
2022-07-25T09:26:50.964Z,39.94
2022-07-25T09:29:29.416Z,38.84
2022-07-25T09:31:59.376Z,40.31
2022-07-25T09:34:38.092Z,40.60
2022-07-25T09:37:12.405Z,40.98
2022-07-25T09:39:46.496Z,40.52
2022-07-25T09:42:19.745Z,36.02
2022-07-25T09:45:15.270Z,35.56
2022-07-25T09:48:12.035Z,37.73
2022-07-25T09:50:39.107Z,35.93
2022-07-25T09:53:06.378Z,36.31
2022-07-25T09:55:33.686Z,35.68
2022-07-25T09:58:00.962Z,33.35
2022-07-25T10:00:29.316Z,32.03
2022-07-25T10:03:16.418Z,30.68
2022-07-25T10:06:03.588Z,33.30
2022-07-25T10:08:37.060Z,32.56
2022-07-25T10:11:06.775Z,30.54
2022-07-25T10:13:35.648Z,28.40
2022-07-25T10:16:04.224Z,31.18
2022-07-25T10:18:32.077Z,30.81
2022-07-25T10:21:25.094Z,28.46
2022-07-25T10:24:07.906Z,30.03
2022-07-25T10:26:40.302Z,29.70
2022-07-25T10:29:11.919Z,27.88
2022-07-25T10:31:50.275Z,28.02
2022-07-25T10:34:33.738Z,28.95
2022-07-25T10:37:15.521Z,29.12
2022-07-25T10:39:48.863Z,29.33
2022-07-25T10:42:18.106Z,27.21
2022-07-25T10:44:48.556Z,30.15
2022-07-25T10:47:17.165Z,29.61
2022-07-25T10:50:13.861Z,24.98
2022-07-25T10:52:42.003Z,29.52
2022-07-25T10:55:11.067Z,30.74
2022-07-25T10:57:45.322Z,29.80
2022-07-25T11:00:22.320Z,29.27
2022-07-25T11:02:50.274Z,28.03
2022-07-25T11:05:18.637Z,30.39
2022-07-25T11:08:18.936Z,27.76
2022-07-25T11:10:40.597Z,25.63
2022-07-25T11:13:16.310Z,29.52
2022-07-25T11:15:44.273Z,29.35
2022-07-25T11:18:12.249Z,28.48
2022-07-25T11:21:06.593Z,32.01
2022-07-25T11:23:35.047Z,29.70
2022-07-25T11:26:07.030Z,28.97
2022-07-25T11:28:52.873Z,28.65
2022-07-25T11:31:28.826Z,30.46
2022-07-25T11:34:00.104Z,31.20
2022-07-25T11:36:27.498Z,32.41
2022-07-25T11:38:54.777Z,27.67
2022-07-25T11:41:33.829Z,31.89
2022-07-25T11:44:00.994Z,32.03
2022-07-25T11:46:28.172Z,31.55
2022-07-25T11:49:06.104Z,30.35
2022-07-25T11:51:37.812Z,27.24
2022-07-25T11:54:11.503Z,32.59
2022-07-25T11:56:42.914Z,33.12
2022-07-25T11:59:11.668Z,33.28
2022-07-25T12:01:47.770Z,30.23
2022-07-25T12:04:17.813Z,32.62
2022-07-25T12:06:47.465Z,31.25
2022-07-25T12:09:22.187Z,32.52
2022-07-25T12:11:50.026Z,31.26
2022-07-25T12:14:18.405Z,31.56
2022-07-25T12:16:45.748Z,32.26
2022-07-25T12:19:20.999Z,30.22
2022-07-25T12:21:48.809Z,31.29
2022-07-25T12:24:16.071Z,31.21
2022-07-25T12:26:44.223Z,29.92
2022-07-25T12:29:11.607Z,27.41
2022-07-25T12:31:38.945Z,31.42
2022-07-25T12:34:06.932Z,31.40
2022-07-25T12:36:41.238Z,30.02
2022-07-25T12:39:09.771Z,29.26
2022-07-25T12:41:37.341Z,31.47
2022-07-25T12:44:04.965Z,30.52
2022-07-25T12:46:32.804Z,32.64
2022-07-25T12:49:00.383Z,31.12
2022-07-25T12:51:27.867Z,29.88
2022-07-25T12:53:56.041Z,31.73
2022-07-25T12:56:23.662Z,28.27
2022-07-25T12:58:51.403Z,32.50
2022-07-25T13:01:25.812Z,32.44
2022-07-25T13:03:53.049Z,31.59
2022-07-25T13:06:20.948Z,32.06
2022-07-25T13:08:49.009Z,31.32
2022-07-25T13:11:16.194Z,30.77
2022-07-25T13:13:43.354Z,32.46
2022-07-25T13:16:10.718Z,32.81
2022-07-25T13:18:38.253Z,32.56
2022-07-25T13:21:05.785Z,28.32
2022-07-25T13:23:33.035Z,31.69
2022-07-25T13:26:00.687Z,29.04
2022-07-25T13:28:27.862Z,31.48
2022-07-25T13:30:56.834Z,30.69
2022-07-25T13:33:24.222Z,30.90
2022-07-25T13:35:52.085Z,30.71
2022-07-25T13:38:20.765Z,29.40
2022-07-25T13:40:47.934Z,30.64
2022-07-25T13:43:15.170Z,30.81
2022-07-25T13:45:42.826Z,30.40
2022-07-25T13:48:29.078Z,28.84
2022-07-25T13:50:58.308Z,31.88
2022-07-25T13:53:29.763Z,30.51
2022-07-25T13:56:00.124Z,30.52
2022-07-25T13:58:27.752Z,30.04
2022-07-25T14:00:55.123Z,30.45
2022-07-25T14:03:22.528Z,31.02
2022-07-25T14:05:49.644Z,30.09
2022-07-25T14:08:17.008Z,30.55
2022-07-25T14:10:44.870Z,32.16
2022-07-25T14:13:13.141Z,31.55
2022-07-25T14:15:40.103Z,29.96
2022-07-25T14:18:09.829Z,31.85
2022-07-25T14:20:37.110Z,31.70
2022-07-25T14:23:04.449Z,31.06
2022-07-25T14:25:34.163Z,28.75
2022-07-25T14:28:01.230Z,30.39
2022-07-25T14:30:28.222Z,29.78
2022-07-25T14:32:55.399Z,30.80
2022-07-25T14:35:22.447Z,27.68
2022-07-25T14:37:49.531Z,30.47
2022-07-25T14:40:16.960Z,28.69
2022-07-25T14:42:44.759Z,28.76
2022-07-25T14:45:12.737Z,30.74
2022-07-25T14:47:41.255Z,30.79
2022-07-25T14:50:08.553Z,28.53
2022-07-25T14:52:35.974Z,29.68
2022-07-25T14:55:03.372Z,29.47
2022-07-25T14:57:33.489Z,29.78
2022-07-25T15:00:03.876Z,29.58
2022-07-25T15:02:31.004Z,28.36
2022-07-25T15:04:58.135Z,29.57
2022-07-25T15:07:25.433Z,27.59
2022-07-25T15:09:52.435Z,25.15
2022-07-25T15:12:20.807Z,27.30
2022-07-25T15:14:48.571Z,27.98
2022-07-25T15:17:16.357Z,26.78
2022-07-25T15:19:43.939Z,23.50
2022-07-25T15:22:11.229Z,25.80
2022-07-25T15:25:04.346Z,26.34
2022-07-25T15:27:25.423Z,27.71
2022-07-25T15:29:52.399Z,27.94
2022-07-25T15:32:20.992Z,25.00
2022-07-25T15:34:49.073Z,25.53
2022-07-25T15:37:16.841Z,27.60
2022-07-25T15:39:45.377Z,25.51
2022-07-25T15:42:12.566Z,28.13
2022-07-25T15:44:39.722Z,28.18
2022-07-25T15:47:07.439Z,27.05
2022-07-25T15:49:35.129Z,28.20
2022-07-25T15:52:02.166Z,26.70
2022-07-25T15:54:29.606Z,24.97
2022-07-25T15:56:58.080Z,27.35
2022-07-25T15:59:25.119Z,26.41
2022-07-25T16:01:52.862Z,27.38
2022-07-25T16:04:19.989Z,27.51
2022-07-25T16:06:47.142Z,27.50
2022-07-25T16:09:16.112Z,27.20
2022-07-25T16:11:44.068Z,23.85
2022-07-25T16:14:11.269Z,25.39
2022-07-25T16:16:38.305Z,26.53
2022-07-25T16:19:07.119Z,25.05
2022-07-25T16:21:35.335Z,24.99
2022-07-25T16:24:02.328Z,26.38
2022-07-25T16:26:29.376Z,27.72
2022-07-25T16:28:57.814Z,26.00
2022-07-25T16:31:26.804Z,28.23
2022-07-25T16:33:54.108Z,25.79
2022-07-25T16:36:21.126Z,27.48
2022-07-25T16:38:49.226Z,27.25
2022-07-25T16:41:17.084Z,25.88
2022-07-25T16:43:44.167Z,28.66
2022-07-25T16:46:11.248Z,28.51
2022-07-25T16:48:38.398Z,26.46
2022-07-25T16:51:06.789Z,27.82
2022-07-25T16:53:35.648Z,25.82
2022-07-25T16:56:04.243Z,23.90
2022-07-25T16:58:31.393Z,27.75
2022-07-25T17:00:58.372Z,27.97
2022-07-25T17:03:26.119Z,25.65
2022-07-25T17:05:54.730Z,24.35
2022-07-25T17:08:21.740Z,24.75
2022-07-25T17:10:48.931Z,24.99
2022-07-25T17:13:16.906Z,25.54
2022-07-25T17:15:45.525Z,23.92
2022-07-25T17:18:14.131Z,26.36
2022-07-25T17:20:42.148Z,25.79
2022-07-25T17:23:11.233Z,24.00
2022-07-25T17:25:39.830Z,25.21
2022-07-25T17:28:07.838Z,26.11
2022-07-25T17:30:35.235Z,25.24
2022-07-25T17:33:03.162Z,23.49
2022-07-25T17:35:32.563Z,26.00
2022-07-25T17:38:00.121Z,23.86
2022-07-25T17:40:27.242Z,24.86
2022-07-25T17:42:54.217Z,24.90
2022-07-25T17:45:21.431Z,24.06
2022-07-25T17:47:49.123Z,23.43
2022-07-25T17:50:16.970Z,24.57
2022-07-25T17:52:44.142Z,24.29
2022-07-25T17:55:20.171Z,24.58
2022-07-25T17:57:49.105Z,23.57
2022-07-25T18:00:16.320Z,25.75
2022-07-25T18:02:43.547Z,22.66
2022-07-25T18:05:10.768Z,21.94
2022-07-25T18:07:40.874Z,25.90
2022-07-25T18:10:08.210Z,23.26
2022-07-25T18:12:35.792Z,25.87
2022-07-25T18:15:04.029Z,22.70
2022-07-25T18:17:32.863Z,23.20
2022-07-25T18:20:00.192Z,24.59
2022-07-25T18:22:27.345Z,23.96
2022-07-25T18:24:54.592Z,23.62
2022-07-25T18:27:22.039Z,25.61
2022-07-25T18:29:49.233Z,22.91
2022-07-25T18:32:16.349Z,23.49
2022-07-25T18:34:43.436Z,25.37
2022-07-25T18:37:10.864Z,22.19
2022-07-25T18:39:39.399Z,22.63
2022-07-25T18:42:06.539Z,23.66
2022-07-25T18:44:33.712Z,19.95
2022-07-25T18:47:01.472Z,25.15
2022-07-25T18:49:29.107Z,24.50
2022-07-25T18:51:56.258Z,22.43
2022-07-25T18:54:23.497Z,22.14
2022-07-25T18:56:50.464Z,21.33
2022-07-25T18:59:21.569Z,22.97
2022-07-25T19:01:51.223Z,23.16
2022-07-25T19:04:19.061Z,23.46
2022-07-25T19:06:46.876Z,21.47
2022-07-25T19:09:13.902Z,24.01
2022-07-25T19:11:42.355Z,22.56
2022-07-25T19:14:10.151Z,21.47
2022-07-25T19:16:40.207Z,23.62
2022-07-25T19:19:07.431Z,23.54
2022-07-25T19:21:34.440Z,20.65
2022-07-25T19:24:01.588Z,19.94
2022-07-25T19:26:28.953Z,22.68
2022-07-25T19:28:55.990Z,23.24
2022-07-25T19:31:23.257Z,20.51
2022-07-25T19:33:51.021Z,22.93
2022-07-25T19:36:20.013Z,19.23
2022-07-25T19:38:48.132Z,20.86
2022-07-25T19:41:15.707Z,21.29
2022-07-25T19:43:42.897Z,20.53
2022-07-25T19:46:10.150Z,20.28
2022-07-25T19:48:37.469Z,21.21
2022-07-25T19:51:12.184Z,21.21
2022-07-25T19:53:39.436Z,22.22
2022-07-25T19:56:08.560Z,19.57
2022-07-25T19:58:39.766Z,19.55
2022-07-25T20:01:10.974Z,21.31
2022-07-25T20:03:39.071Z,18.36
2022-07-25T20:06:08.581Z,19.05
2022-07-25T20:08:37.247Z,20.49
2022-07-25T20:11:04.250Z,20.59
2022-07-25T20:13:31.142Z,19.96
2022-07-25T20:15:58.771Z,17.32
2022-07-25T20:18:25.889Z,20.10
2022-07-25T20:20:53.978Z,19.61
2022-07-25T20:23:23.198Z,19.50
2022-07-25T20:25:50.490Z,19.24
2022-07-25T20:28:18.854Z,20.35
2022-07-25T20:30:46.012Z,18.85
2022-07-25T20:33:13.119Z,15.72
2022-07-25T20:35:40.414Z,17.73
2022-07-25T20:38:09.109Z,17.75
2022-07-25T20:40:48.181Z,21.07
2022-07-25T20:43:21.596Z,19.68
2022-07-25T20:45:48.821Z,19.39
2022-07-25T20:48:16.012Z,19.72
2022-07-25T20:50:44.595Z,18.88
2022-07-25T20:53:12.079Z,17.56
2022-07-25T20:55:39.283Z,18.89
2022-07-25T20:58:08.178Z,18.06
2022-07-25T21:00:35.130Z,20.71
2022-07-25T21:03:02.238Z,18.02
2022-07-25T21:08:24.357Z,18.47
2022-07-25T21:10:51.453Z,19.83
2022-07-25T21:13:18.639Z,17.93
2022-07-25T21:15:45.805Z,18.49
2022-07-25T21:18:14.272Z,20.56
2022-07-25T21:20:41.294Z,18.29
2022-07-25T21:23:08.781Z,19.06
2022-07-25T21:25:35.826Z,19.19
2022-07-25T21:28:02.908Z,19.20
2022-07-25T21:30:31.796Z,17.10
2022-07-25T21:32:58.743Z,18.10
2022-07-25T21:35:25.663Z,20.35
2022-07-25T21:37:52.635Z,16.81
2022-07-25T21:40:19.539Z,17.67
2022-07-25T21:42:46.820Z,19.72
2022-07-25T21:45:13.882Z,19.49
2022-07-25T21:47:41.236Z,19.21
2022-07-25T21:50:27.208Z,20.64
2022-07-25T21:53:00.531Z,20.71
2022-07-25T21:55:29.984Z,19.18
2022-07-25T21:57:59.190Z,17.49
2022-07-25T22:00:33.517Z,17.89
2022-07-25T22:03:01.363Z,18.56
2022-07-25T22:05:28.440Z,18.14
2022-07-25T22:07:55.662Z,20.24
2022-07-25T22:10:22.924Z,18.30
2022-07-25T22:12:50.192Z,18.13
2022-07-25T22:15:17.301Z,19.87
2022-07-25T22:17:48.625Z,20.01
2022-07-25T22:20:19.314Z,20.55
2022-07-25T22:22:48.000Z,18.37
2022-07-25T22:25:16.249Z,20.80
2022-07-25T22:27:45.196Z,17.95
2022-07-25T22:30:18.299Z,19.62
2022-07-25T22:32:48.846Z,20.87
2022-07-25T22:35:18.008Z,20.85
2022-07-25T22:37:45.893Z,20.83
2022-07-25T22:40:13.060Z,18.06
2022-07-25T22:42:40.242Z,18.03
2022-07-25T22:45:08.292Z,19.07
2022-07-25T22:47:35.437Z,18.32
2022-07-25T22:50:02.364Z,19.49
2022-07-25T22:52:29.395Z,18.96
2022-07-25T22:54:56.379Z,20.10
2022-07-25T22:57:24.237Z,19.83
2022-07-25T22:59:51.225Z,18.67
2022-07-25T23:02:18.429Z,19.71
2022-07-25T23:04:45.482Z,17.13
2022-07-25T23:07:12.517Z,17.82
2022-07-25T23:09:39.630Z,16.47
2022-07-25T23:12:07.026Z,18.51
2022-07-25T23:14:34.059Z,17.31
2022-07-25T23:17:19.659Z,18.31
2022-07-25T23:19:48.938Z,19.64
2022-07-25T23:22:16.928Z,14.76
2022-07-25T23:24:45.091Z,18.37
2022-07-25T23:27:12.431Z,19.24
2022-07-25T23:29:40.297Z,16.86
2022-07-25T23:32:07.656Z,15.94
2022-07-25T23:34:35.861Z,16.68
2022-07-25T23:37:04.216Z,17.28
2022-07-25T23:39:32.297Z,16.59
2022-07-25T23:42:02.880Z,14.77
2022-07-25T23:44:30.206Z,16.95
2022-07-25T23:46:59.966Z,19.71
2022-07-25T23:49:28.883Z,18.49
2022-07-25T23:51:58.986Z,18.08
2022-07-25T23:54:26.277Z,18.61
2022-07-25T23:56:53.393Z,18.18
2022-07-25T23:59:20.749Z,19.76
